sensor_id;sensor_type;location;lat;lon;timestamp;P1;durP1;ratioP1;P2;durP2;ratioP2
12467;SDS011;57850;52.922;6.256;2024-01-11T00:01:13;37.50;;;16.93;;
12467;SDS011;57850;52.922;6.256;2024-01-11T00:03:40;31.17;;;17.03;;
12467;SDS011;57850;52.922;6.256;2024-01-11T00:06:06;32.13;;;17.30;;
12467;SDS011;57850;52.922;6.256;2024-01-11T00:08:34;35.13;;;18.33;;
12467;SDS011;57850;52.922;6.256;2024-01-11T00:11:01;32.97;;;17.43;;
12467;SDS011;57850;52.922;6.256;2024-01-11T00:13:28;30.23;;;16.57;;
12467;SDS011;57850;52.922;6.256;2024-01-11T00:15:55;34.13;;;17.40;;
12467;SDS011;57850;52.922;6.256;2024-01-11T00:18:21;32.33;;;17.77;;
12467;SDS011;57850;52.922;6.256;2024-01-11T00:20:48;27.60;;;15.43;;
12467;SDS011;57850;52.922;6.256;2024-01-11T00:23:15;32.53;;;18.03;;
12467;SDS011;57850;52.922;6.256;2024-01-11T00:25:43;32.23;;;18.17;;
12467;SDS011;57850;52.922;6.256;2024-01-11T00:28:09;35.90;;;17.90;;
12467;SDS011;57850;52.922;6.256;2024-01-11T00:30:36;31.10;;;17.70;;
12467;SDS011;57850;52.922;6.256;2024-01-11T00:33:03;29.77;;;16.37;;
12467;SDS011;57850;52.922;6.256;2024-01-11T00:35:29;30.23;;;16.03;;
12467;SDS011;57850;52.922;6.256;2024-01-11T00:37:56;36.13;;;17.77;;
12467;SDS011;57850;52.922;6.256;2024-01-11T00:40:23;33.67;;;17.77;;
12467;SDS011;57850;52.922;6.256;2024-01-11T00:42:51;31.27;;;17.17;;
12467;SDS011;57850;52.922;6.256;2024-01-11T00:45:17;31.00;;;17.77;;
12467;SDS011;57850;52.922;6.256;2024-01-11T00:47:44;34.40;;;18.87;;
12467;SDS011;57850;52.922;6.256;2024-01-11T00:50:11;33.23;;;17.17;;
12467;SDS011;57850;52.922;6.256;2024-01-11T00:52:38;35.47;;;17.57;;
12467;SDS011;57850;52.922;6.256;2024-01-11T00:55:05;31.73;;;17.67;;
12467;SDS011;57850;52.922;6.256;2024-01-11T00:57:32;34.87;;;18.10;;
12467;SDS011;57850;52.922;6.256;2024-01-11T01:00:00;34.13;;;17.77;;
12467;SDS011;57850;52.922;6.256;2024-01-11T01:02:26;31.80;;;17.17;;
12467;SDS011;57850;52.922;6.256;2024-01-11T01:04:53;35.57;;;18.93;;
12467;SDS011;57850;52.922;6.256;2024-01-11T01:07:20;34.87;;;18.77;;
12467;SDS011;57850;52.922;6.256;2024-01-11T01:09:46;37.80;;;18.73;;
12467;SDS011;57850;52.922;6.256;2024-01-11T01:12:13;33.00;;;18.73;;
12467;SDS011;57850;52.922;6.256;2024-01-11T01:14:39;38.27;;;18.13;;
12467;SDS011;57850;52.922;6.256;2024-01-11T01:17:07;37.13;;;17.60;;
12467;SDS011;57850;52.922;6.256;2024-01-11T01:19:34;38.30;;;18.27;;
12467;SDS011;57850;52.922;6.256;2024-01-11T01:22:00;34.57;;;17.50;;
12467;SDS011;57850;52.922;6.256;2024-01-11T01:24:26;34.27;;;17.57;;
12467;SDS011;57850;52.922;6.256;2024-01-11T01:26:53;35.03;;;18.60;;
12467;SDS011;57850;52.922;6.256;2024-01-11T01:29:19;36.20;;;17.67;;
12467;SDS011;57850;52.922;6.256;2024-01-11T01:31:46;32.37;;;17.40;;
12467;SDS011;57850;52.922;6.256;2024-01-11T01:34:14;35.33;;;17.67;;
12467;SDS011;57850;52.922;6.256;2024-01-11T01:36:41;40.47;;;20.03;;
12467;SDS011;57850;52.922;6.256;2024-01-11T01:39:07;35.50;;;18.77;;
12467;SDS011;57850;52.922;6.256;2024-01-11T01:41:34;34.10;;;17.97;;
12467;SDS011;57850;52.922;6.256;2024-01-11T01:44:00;35.23;;;17.70;;
12467;SDS011;57850;52.922;6.256;2024-01-11T01:46:27;37.03;;;18.87;;
12467;SDS011;57850;52.922;6.256;2024-01-11T01:48:55;42.73;;;21.30;;
12467;SDS011;57850;52.922;6.256;2024-01-11T01:51:25;38.97;;;20.60;;
12467;SDS011;57850;52.922;6.256;2024-01-11T01:53:55;33.57;;;18.17;;
12467;SDS011;57850;52.922;6.256;2024-01-11T01:56:23;33.80;;;17.73;;
12467;SDS011;57850;52.922;6.256;2024-01-11T01:58:50;35.50;;;18.57;;
12467;SDS011;57850;52.922;6.256;2024-01-11T02:01:18;35.57;;;18.50;;
12467;SDS011;57850;52.922;6.256;2024-01-11T02:03:45;32.30;;;17.40;;
12467;SDS011;57850;52.922;6.256;2024-01-11T02:06:13;44.67;;;19.77;;
12467;SDS011;57850;52.922;6.256;2024-01-11T02:08:42;35.27;;;18.53;;
12467;SDS011;57850;52.922;6.256;2024-01-11T02:11:10;34.17;;;17.30;;
12467;SDS011;57850;52.922;6.256;2024-01-11T02:13:37;33.37;;;17.07;;
12467;SDS011;57850;52.922;6.256;2024-01-11T02:16:04;31.77;;;16.67;;
12467;SDS011;57850;52.922;6.256;2024-01-11T02:18:32;35.97;;;18.40;;
12467;SDS011;57850;52.922;6.256;2024-01-11T02:20:58;29.70;;;16.33;;
12467;SDS011;57850;52.922;6.256;2024-01-11T02:23:25;34.77;;;16.27;;
12467;SDS011;57850;52.922;6.256;2024-01-11T02:25:54;33.67;;;18.23;;
12467;SDS011;57850;52.922;6.256;2024-01-11T02:28:21;34.30;;;17.07;;
12467;SDS011;57850;52.922;6.256;2024-01-11T02:30:47;33.97;;;18.50;;
12467;SDS011;57850;52.922;6.256;2024-01-11T02:33:14;36.33;;;17.70;;
12467;SDS011;57850;52.922;6.256;2024-01-11T02:35:41;35.47;;;18.00;;
12467;SDS011;57850;52.922;6.256;2024-01-11T02:38:08;33.00;;;17.37;;
12467;SDS011;57850;52.922;6.256;2024-01-11T02:40:36;33.93;;;17.73;;
12467;SDS011;57850;52.922;6.256;2024-01-11T02:43:11;35.63;;;18.67;;
12467;SDS011;57850;52.922;6.256;2024-01-11T02:45:37;32.97;;;17.87;;
12467;SDS011;57850;52.922;6.256;2024-01-11T02:48:04;36.77;;;18.33;;
12467;SDS011;57850;52.922;6.256;2024-01-11T02:50:31;34.73;;;17.83;;
12467;SDS011;57850;52.922;6.256;2024-01-11T02:52:58;37.10;;;17.97;;
12467;SDS011;57850;52.922;6.256;2024-01-11T02:55:25;34.63;;;17.80;;
12467;SDS011;57850;52.922;6.256;2024-01-11T02:57:51;38.50;;;18.77;;
12467;SDS011;57850;52.922;6.256;2024-01-11T03:00:19;33.77;;;17.90;;
12467;SDS011;57850;52.922;6.256;2024-01-11T03:02:46;38.73;;;18.40;;
12467;SDS011;57850;52.922;6.256;2024-01-11T03:05:13;36.23;;;18.10;;
12467;SDS011;57850;52.922;6.256;2024-01-11T03:07:39;37.53;;;18.23;;
12467;SDS011;57850;52.922;6.256;2024-01-11T03:10:06;30.60;;;16.20;;
12467;SDS011;57850;52.922;6.256;2024-01-11T03:12:34;35.00;;;18.03;;
12467;SDS011;57850;52.922;6.256;2024-01-11T03:15:01;37.13;;;17.83;;
12467;SDS011;57850;52.922;6.256;2024-01-11T03:17:29;33.97;;;17.63;;
12467;SDS011;57850;52.922;6.256;2024-01-11T03:19:56;35.73;;;17.53;;
12467;SDS011;57850;52.922;6.256;2024-01-11T03:22:22;34.13;;;18.03;;
12467;SDS011;57850;52.922;6.256;2024-01-11T03:24:49;35.73;;;18.73;;
12467;SDS011;57850;52.922;6.256;2024-01-11T03:27:16;36.77;;;18.53;;
12467;SDS011;57850;52.922;6.256;2024-01-11T03:29:43;40.30;;;18.33;;
12467;SDS011;57850;52.922;6.256;2024-01-11T03:32:09;36.33;;;17.17;;
12467;SDS011;57850;52.922;6.256;2024-01-11T03:34:40;37.10;;;18.17;;
12467;SDS011;57850;52.922;6.256;2024-01-11T03:37:06;37.80;;;18.70;;
12467;SDS011;57850;52.922;6.256;2024-01-11T03:39:34;34.27;;;17.93;;
12467;SDS011;57850;52.922;6.256;2024-01-11T03:42:00;38.77;;;17.30;;
12467;SDS011;57850;52.922;6.256;2024-01-11T03:44:28;35.53;;;17.57;;
12467;SDS011;57850;52.922;6.256;2024-01-11T03:46:56;36.60;;;17.83;;
12467;SDS011;57850;52.922;6.256;2024-01-11T03:49:22;35.47;;;18.43;;
12467;SDS011;57850;52.922;6.256;2024-01-11T03:51:50;33.83;;;18.50;;
12467;SDS011;57850;52.922;6.256;2024-01-11T03:54:17;37.97;;;19.00;;
12467;SDS011;57850;52.922;6.256;2024-01-11T03:56:43;39.23;;;19.67;;
12467;SDS011;57850;52.922;6.256;2024-01-11T03:59:10;38.47;;;20.30;;
12467;SDS011;57850;52.922;6.256;2024-01-11T04:01:38;40.87;;;19.50;;
12467;SDS011;57850;52.922;6.256;2024-01-11T04:04:06;34.90;;;18.13;;
12467;SDS011;57850;52.922;6.256;2024-01-11T04:06:33;38.13;;;17.53;;
12467;SDS011;57850;52.922;6.256;2024-01-11T04:09:01;38.80;;;18.50;;
12467;SDS011;57850;52.922;6.256;2024-01-11T04:11:27;38.40;;;18.73;;
12467;SDS011;57850;52.922;6.256;2024-01-11T04:13:54;37.93;;;18.03;;
12467;SDS011;57850;52.922;6.256;2024-01-11T04:16:21;35.33;;;18.17;;
12467;SDS011;57850;52.922;6.256;2024-01-11T04:18:48;34.17;;;17.70;;
12467;SDS011;57850;52.922;6.256;2024-01-11T04:21:21;33.50;;;16.87;;
12467;SDS011;57850;52.922;6.256;2024-01-11T04:23:48;33.97;;;16.93;;
12467;SDS011;57850;52.922;6.256;2024-01-11T04:26:16;34.77;;;17.20;;
12467;SDS011;57850;52.922;6.256;2024-01-11T04:28:44;34.30;;;16.70;;
12467;SDS011;57850;52.922;6.256;2024-01-11T04:31:11;34.37;;;16.93;;
12467;SDS011;57850;52.922;6.256;2024-01-11T04:33:39;33.67;;;16.77;;
12467;SDS011;57850;52.922;6.256;2024-01-11T04:36:06;33.77;;;17.07;;
12467;SDS011;57850;52.922;6.256;2024-01-11T04:38:33;37.67;;;17.93;;
12467;SDS011;57850;52.922;6.256;2024-01-11T04:40:59;37.83;;;17.60;;
12467;SDS011;57850;52.922;6.256;2024-01-11T04:43:27;39.30;;;18.57;;
12467;SDS011;57850;52.922;6.256;2024-01-11T04:45:53;35.50;;;18.97;;
12467;SDS011;57850;52.922;6.256;2024-01-11T04:48:19;39.90;;;19.90;;
12467;SDS011;57850;52.922;6.256;2024-01-11T04:50:46;38.90;;;19.97;;
12467;SDS011;57850;52.922;6.256;2024-01-11T04:53:13;34.67;;;18.73;;
12467;SDS011;57850;52.922;6.256;2024-01-11T04:55:39;41.13;;;17.77;;
12467;SDS011;57850;52.922;6.256;2024-01-11T04:58:06;42.80;;;20.27;;
12467;SDS011;57850;52.922;6.256;2024-01-11T05:00:34;37.93;;;18.60;;
12467;SDS011;57850;52.922;6.256;2024-01-11T05:03:01;37.47;;;19.00;;
12467;SDS011;57850;52.922;6.256;2024-01-11T05:05:28;40.20;;;20.03;;
12467;SDS011;57850;52.922;6.256;2024-01-11T05:07:54;37.57;;;18.30;;
12467;SDS011;57850;52.922;6.256;2024-01-11T05:10:21;39.20;;;20.37;;
12467;SDS011;57850;52.922;6.256;2024-01-11T05:12:47;36.90;;;18.17;;
12467;SDS011;57850;52.922;6.256;2024-01-11T05:15:14;39.83;;;18.77;;
12467;SDS011;57850;52.922;6.256;2024-01-11T05:17:43;41.77;;;19.70;;
12467;SDS011;57850;52.922;6.256;2024-01-11T05:20:10;45.93;;;20.73;;
12467;SDS011;57850;52.922;6.256;2024-01-11T05:22:36;31.57;;;17.10;;
12467;SDS011;57850;52.922;6.256;2024-01-11T05:25:03;41.70;;;19.30;;
12467;SDS011;57850;52.922;6.256;2024-01-11T05:27:31;38.63;;;19.13;;
12467;SDS011;57850;52.922;6.256;2024-01-11T05:29:57;41.90;;;20.57;;
12467;SDS011;57850;52.922;6.256;2024-01-11T05:32:24;41.57;;;20.13;;
12467;SDS011;57850;52.922;6.256;2024-01-11T05:34:52;37.57;;;19.10;;
12467;SDS011;57850;52.922;6.256;2024-01-11T05:37:18;37.20;;;18.47;;
12467;SDS011;57850;52.922;6.256;2024-01-11T05:39:46;40.27;;;19.87;;
12467;SDS011;57850;52.922;6.256;2024-01-11T05:42:12;40.47;;;19.77;;
12467;SDS011;57850;52.922;6.256;2024-01-11T05:44:39;43.60;;;19.00;;
12467;SDS011;57850;52.922;6.256;2024-01-11T05:47:05;39.40;;;19.37;;
12467;SDS011;57850;52.922;6.256;2024-01-11T05:49:32;39.80;;;18.37;;
12467;SDS011;57850;52.922;6.256;2024-01-11T05:52:00;44.90;;;20.93;;
12467;SDS011;57850;52.922;6.256;2024-01-11T05:54:27;36.77;;;19.67;;
12467;SDS011;57850;52.922;6.256;2024-01-11T05:56:54;39.97;;;19.70;;
12467;SDS011;57850;52.922;6.256;2024-01-11T05:59:23;41.03;;;20.67;;
12467;SDS011;57850;52.922;6.256;2024-01-11T06:01:49;40.20;;;19.77;;
12467;SDS011;57850;52.922;6.256;2024-01-11T06:04:16;42.40;;;21.07;;
12467;SDS011;57850;52.922;6.256;2024-01-11T06:06:43;36.80;;;19.13;;
12467;SDS011;57850;52.922;6.256;2024-01-11T06:09:11;42.47;;;21.47;;
12467;SDS011;57850;52.922;6.256;2024-01-11T06:11:37;43.23;;;22.57;;
12467;SDS011;57850;52.922;6.256;2024-01-11T06:14:05;41.23;;;21.27;;
12467;SDS011;57850;52.922;6.256;2024-01-11T06:16:31;43.33;;;21.57;;
12467;SDS011;57850;52.922;6.256;2024-01-11T06:18:58;39.93;;;20.97;;
12467;SDS011;57850;52.922;6.256;2024-01-11T06:21:24;37.10;;;19.93;;
12467;SDS011;57850;52.922;6.256;2024-01-11T06:23:51;53.17;;;25.70;;
12467;SDS011;57850;52.922;6.256;2024-01-11T06:26:19;49.07;;;24.87;;
12467;SDS011;57850;52.922;6.256;2024-01-11T06:28:47;42.83;;;22.53;;
12467;SDS011;57850;52.922;6.256;2024-01-11T06:31:14;44.23;;;22.27;;
12467;SDS011;57850;52.922;6.256;2024-01-11T06:33:40;38.77;;;21.77;;
12467;SDS011;57850;52.922;6.256;2024-01-11T06:36:07;40.60;;;20.80;;
12467;SDS011;57850;52.922;6.256;2024-01-11T06:38:34;46.67;;;22.23;;
12467;SDS011;57850;52.922;6.256;2024-01-11T06:41:01;37.27;;;21.70;;
12467;SDS011;57850;52.922;6.256;2024-01-11T06:43:29;45.37;;;23.43;;
12467;SDS011;57850;52.922;6.256;2024-01-11T06:45:55;43.87;;;23.53;;
12467;SDS011;57850;52.922;6.256;2024-01-11T06:48:22;42.60;;;22.70;;
12467;SDS011;57850;52.922;6.256;2024-01-11T06:50:49;47.03;;;22.97;;
12467;SDS011;57850;52.922;6.256;2024-01-11T06:53:16;45.70;;;23.63;;
12467;SDS011;57850;52.922;6.256;2024-01-11T06:55:42;41.03;;;21.80;;
12467;SDS011;57850;52.922;6.256;2024-01-11T06:58:09;39.77;;;20.63;;
12467;SDS011;57850;52.922;6.256;2024-01-11T07:00:37;43.73;;;20.90;;
12467;SDS011;57850;52.922;6.256;2024-01-11T07:03:08;42.43;;;21.20;;
12467;SDS011;57850;52.922;6.256;2024-01-11T07:05:34;47.77;;;21.17;;
12467;SDS011;57850;52.922;6.256;2024-01-11T07:08:01;42.67;;;20.30;;
12467;SDS011;57850;52.922;6.256;2024-01-11T07:10:28;46.40;;;22.60;;
12467;SDS011;57850;52.922;6.256;2024-01-11T07:12:54;47.53;;;22.67;;
12467;SDS011;57850;52.922;6.256;2024-01-11T07:15:21;37.00;;;20.13;;
12467;SDS011;57850;52.922;6.256;2024-01-11T07:17:50;42.97;;;22.13;;
12467;SDS011;57850;52.922;6.256;2024-01-11T07:20:18;40.40;;;21.97;;
12467;SDS011;57850;52.922;6.256;2024-01-11T07:22:45;42.00;;;21.83;;
12467;SDS011;57850;52.922;6.256;2024-01-11T07:25:11;46.17;;;21.93;;
12467;SDS011;57850;52.922;6.256;2024-01-11T07:27:39;39.77;;;21.20;;
12467;SDS011;57850;52.922;6.256;2024-01-11T07:30:06;44.97;;;21.50;;
12467;SDS011;57850;52.922;6.256;2024-01-11T07:32:33;44.40;;;21.87;;
12467;SDS011;57850;52.922;6.256;2024-01-11T07:35:01;43.60;;;22.00;;
12467;SDS011;57850;52.922;6.256;2024-01-11T07:37:28;46.87;;;23.00;;
12467;SDS011;57850;52.922;6.256;2024-01-11T07:39:55;40.77;;;21.70;;
12467;SDS011;57850;52.922;6.256;2024-01-11T07:42:21;44.17;;;23.33;;
12467;SDS011;57850;52.922;6.256;2024-01-11T07:44:48;46.03;;;23.87;;
12467;SDS011;57850;52.922;6.256;2024-01-11T07:47:15;47.53;;;22.43;;
12467;SDS011;57850;52.922;6.256;2024-01-11T07:49:42;52.10;;;24.03;;
12467;SDS011;57850;52.922;6.256;2024-01-11T07:52:10;43.27;;;22.73;;
12467;SDS011;57850;52.922;6.256;2024-01-11T07:54:37;43.20;;;22.43;;
12467;SDS011;57850;52.922;6.256;2024-01-11T07:57:04;41.43;;;21.43;;
12467;SDS011;57850;52.922;6.256;2024-01-11T07:59:32;41.80;;;21.27;;
12467;SDS011;57850;52.922;6.256;2024-01-11T08:02:01;38.07;;;19.20;;
12467;SDS011;57850;52.922;6.256;2024-01-11T08:04:27;40.23;;;21.03;;
12467;SDS011;57850;52.922;6.256;2024-01-11T08:06:54;40.57;;;21.00;;
12467;SDS011;57850;52.922;6.256;2024-01-11T08:09:22;42.03;;;20.90;;
12467;SDS011;57850;52.922;6.256;2024-01-11T08:11:49;44.03;;;22.30;;
12467;SDS011;57850;52.922;6.256;2024-01-11T08:14:17;41.87;;;21.67;;
12467;SDS011;57850;52.922;6.256;2024-01-11T08:16:44;41.97;;;22.30;;
12467;SDS011;57850;52.922;6.256;2024-01-11T08:19:10;39.67;;;21.60;;
12467;SDS011;57850;52.922;6.256;2024-01-11T08:21:38;44.33;;;24.00;;
12467;SDS011;57850;52.922;6.256;2024-01-11T08:24:06;46.53;;;22.73;;
12467;SDS011;57850;52.922;6.256;2024-01-11T08:26:34;41.63;;;21.73;;
12467;SDS011;57850;52.922;6.256;2024-01-11T08:29:01;40.93;;;21.93;;
12467;SDS011;57850;52.922;6.256;2024-01-11T08:31:30;40.93;;;21.27;;
12467;SDS011;57850;52.922;6.256;2024-01-11T08:33:57;42.87;;;22.13;;
12467;SDS011;57850;52.922;6.256;2024-01-11T08:36:24;40.67;;;21.27;;
12467;SDS011;57850;52.922;6.256;2024-01-11T08:38:51;39.93;;;21.50;;
12467;SDS011;57850;52.922;6.256;2024-01-11T08:41:17;44.47;;;22.63;;
12467;SDS011;57850;52.922;6.256;2024-01-11T08:43:45;39.97;;;21.67;;
12467;SDS011;57850;52.922;6.256;2024-01-11T08:46:12;45.77;;;23.03;;
12467;SDS011;57850;52.922;6.256;2024-01-11T08:48:49;42.33;;;21.83;;
12467;SDS011;57850;52.922;6.256;2024-01-11T08:51:16;41.23;;;22.33;;
12467;SDS011;57850;52.922;6.256;2024-01-11T08:53:42;41.97;;;20.37;;
12467;SDS011;57850;52.922;6.256;2024-01-11T08:56:09;41.23;;;21.13;;
12467;SDS011;57850;52.922;6.256;2024-01-11T08:58:36;41.33;;;21.43;;
12467;SDS011;57850;52.922;6.256;2024-01-11T09:01:04;39.50;;;21.27;;
12467;SDS011;57850;52.922;6.256;2024-01-11T09:03:32;37.13;;;19.93;;
12467;SDS011;57850;52.922;6.256;2024-01-11T09:05:58;36.97;;;21.57;;
12467;SDS011;57850;52.922;6.256;2024-01-11T09:08:25;40.57;;;20.87;;
12467;SDS011;57850;52.922;6.256;2024-01-11T09:10:51;40.67;;;21.20;;
12467;SDS011;57850;52.922;6.256;2024-01-11T09:13:18;38.93;;;21.40;;
12467;SDS011;57850;52.922;6.256;2024-01-11T09:15:46;39.67;;;20.83;;
12467;SDS011;57850;52.922;6.256;2024-01-11T09:18:14;43.37;;;20.53;;
12467;SDS011;57850;52.922;6.256;2024-01-11T09:20:41;37.27;;;20.60;;
12467;SDS011;57850;52.922;6.256;2024-01-11T09:23:07;40.10;;;21.30;;
12467;SDS011;57850;52.922;6.256;2024-01-11T09:25:34;37.27;;;19.60;;
12467;SDS011;57850;52.922;6.256;2024-01-11T09:28:01;39.67;;;21.57;;
12467;SDS011;57850;52.922;6.256;2024-01-11T09:30:28;39.33;;;20.53;;
12467;SDS011;57850;52.922;6.256;2024-01-11T09:32:55;33.47;;;18.67;;
12467;SDS011;57850;52.922;6.256;2024-01-11T09:35:23;37.70;;;20.77;;
12467;SDS011;57850;52.922;6.256;2024-01-11T09:37:50;37.07;;;19.47;;
12467;SDS011;57850;52.922;6.256;2024-01-11T09:40:17;41.43;;;21.13;;
12467;SDS011;57850;52.922;6.256;2024-01-11T09:42:44;38.13;;;20.00;;
12467;SDS011;57850;52.922;6.256;2024-01-11T09:45:12;44.07;;;23.30;;
12467;SDS011;57850;52.922;6.256;2024-01-11T09:47:40;37.90;;;19.87;;
12467;SDS011;57850;52.922;6.256;2024-01-11T09:50:09;38.53;;;20.07;;
12467;SDS011;57850;52.922;6.256;2024-01-11T09:52:37;35.83;;;19.43;;
12467;SDS011;57850;52.922;6.256;2024-01-11T09:55:06;36.40;;;19.97;;
12467;SDS011;57850;52.922;6.256;2024-01-11T09:57:32;33.13;;;18.60;;
12467;SDS011;57850;52.922;6.256;2024-01-11T10:00:03;34.87;;;18.47;;
12467;SDS011;57850;52.922;6.256;2024-01-11T10:02:32;34.13;;;18.53;;
12467;SDS011;57850;52.922;6.256;2024-01-11T10:04:59;35.70;;;18.63;;
12467;SDS011;57850;52.922;6.256;2024-01-11T10:07:25;37.60;;;20.37;;
12467;SDS011;57850;52.922;6.256;2024-01-11T10:09:56;35.47;;;18.43;;
12467;SDS011;57850;52.922;6.256;2024-01-11T10:12:23;32.90;;;18.67;;
12467;SDS011;57850;52.922;6.256;2024-01-11T10:14:50;38.27;;;19.30;;
12467;SDS011;57850;52.922;6.256;2024-01-11T10:17:17;34.73;;;18.73;;
12467;SDS011;57850;52.922;6.256;2024-01-11T10:19:43;37.53;;;19.63;;
12467;SDS011;57850;52.922;6.256;2024-01-11T10:22:16;34.63;;;19.13;;
12467;SDS011;57850;52.922;6.256;2024-01-11T10:24:51;34.03;;;19.17;;
12467;SDS011;57850;52.922;6.256;2024-01-11T10:27:39;34.37;;;18.67;;
12467;SDS011;57850;52.922;6.256;2024-01-11T10:30:08;32.57;;;18.57;;
12467;SDS011;57850;52.922;6.256;2024-01-11T10:32:38;33.13;;;19.03;;
12467;SDS011;57850;52.922;6.256;2024-01-11T10:35:05;34.40;;;19.27;;
12467;SDS011;57850;52.922;6.256;2024-01-11T10:37:32;34.17;;;18.87;;
12467;SDS011;57850;52.922;6.256;2024-01-11T10:40:01;32.10;;;17.43;;
12467;SDS011;57850;52.922;6.256;2024-01-11T10:42:35;37.43;;;19.13;;
12467;SDS011;57850;52.922;6.256;2024-01-11T10:45:03;30.90;;;17.43;;
12467;SDS011;57850;52.922;6.256;2024-01-11T10:47:33;30.97;;;17.67;;
12467;SDS011;57850;52.922;6.256;2024-01-11T10:50:03;30.23;;;17.03;;
12467;SDS011;57850;52.922;6.256;2024-01-11T10:52:34;28.83;;;17.70;;
12467;SDS011;57850;52.922;6.256;2024-01-11T10:55:06;32.30;;;17.70;;
12467;SDS011;57850;52.922;6.256;2024-01-11T10:57:33;29.20;;;16.13;;
12467;SDS011;57850;52.922;6.256;2024-01-11T11:00:02;28.65;;;16.17;;
12467;SDS011;57850;52.922;6.256;2024-01-11T11:02:30;30.33;;;17.73;;
12467;SDS011;57850;52.922;6.256;2024-01-11T11:05:00;29.63;;;17.70;;
12467;SDS011;57850;52.922;6.256;2024-01-11T11:07:29;30.97;;;17.50;;
12467;SDS011;57850;52.922;6.256;2024-01-11T11:09:56;31.77;;;18.33;;
12467;SDS011;57850;52.922;6.256;2024-01-11T11:12:24;32.73;;;17.17;;
12467;SDS011;57850;52.922;6.256;2024-01-11T11:14:53;31.00;;;18.17;;
12467;SDS011;57850;52.922;6.256;2024-01-11T11:17:21;30.33;;;17.57;;
12467;SDS011;57850;52.922;6.256;2024-01-11T11:19:48;28.80;;;16.63;;
12467;SDS011;57850;52.922;6.256;2024-01-11T11:22:14;28.87;;;16.73;;
12467;SDS011;57850;52.922;6.256;2024-01-11T11:24:44;29.60;;;16.30;;
12467;SDS011;57850;52.922;6.256;2024-01-11T11:27:12;36.77;;;17.33;;
12467;SDS011;57850;52.922;6.256;2024-01-11T11:29:39;29.23;;;17.00;;
12467;SDS011;57850;52.922;6.256;2024-01-11T11:32:08;30.97;;;17.20;;
12467;SDS011;57850;52.922;6.256;2024-01-11T11:34:40;30.60;;;16.73;;
12467;SDS011;57850;52.922;6.256;2024-01-11T11:37:09;28.23;;;15.20;;
12467;SDS011;57850;52.922;6.256;2024-01-11T11:39:36;28.50;;;16.30;;
12467;SDS011;57850;52.922;6.256;2024-01-11T11:42:03;29.43;;;16.37;;
12467;SDS011;57850;52.922;6.256;2024-01-11T11:44:30;27.40;;;17.00;;
12467;SDS011;57850;52.922;6.256;2024-01-11T11:49:57;30.83;;;17.27;;
12467;SDS011;57850;52.922;6.256;2024-01-11T11:52:34;30.05;;;17.40;;
12467;SDS011;57850;52.922;6.256;2024-01-11T11:55:02;32.25;;;17.88;;
12467;SDS011;57850;52.922;6.256;2024-01-11T11:57:30;28.13;;;16.67;;
12467;SDS011;57850;52.922;6.256;2024-01-11T11:59:57;27.83;;;16.40;;
12467;SDS011;57850;52.922;6.256;2024-01-11T12:02:26;33.22;;;16.58;;
12467;SDS011;57850;52.922;6.256;2024-01-11T12:04:53;31.47;;;16.83;;
12467;SDS011;57850;52.922;6.256;2024-01-11T12:07:19;31.83;;;17.60;;
12467;SDS011;57850;52.922;6.256;2024-01-11T12:09:48;29.50;;;16.15;;
12467;SDS011;57850;52.922;6.256;2024-01-11T12:12:14;30.77;;;15.90;;
12467;SDS011;57850;52.922;6.256;2024-01-11T12:14:42;27.05;;;15.73;;
12467;SDS011;57850;52.922;6.256;2024-01-11T12:17:11;28.10;;;15.17;;
12467;SDS011;57850;52.922;6.256;2024-01-11T12:19:39;27.63;;;15.70;;
12467;SDS011;57850;52.922;6.256;2024-01-11T12:22:05;25.50;;;14.63;;
12467;SDS011;57850;52.922;6.256;2024-01-11T12:24:32;24.70;;;14.65;;
12467;SDS011;57850;52.922;6.256;2024-01-11T12:26:59;28.47;;;16.07;;
12467;SDS011;57850;52.922;6.256;2024-01-11T12:29:28;27.77;;;16.37;;
12467;SDS011;57850;52.922;6.256;2024-01-11T12:31:55;31.73;;;16.30;;
12467;SDS011;57850;52.922;6.256;2024-01-11T12:34:22;30.33;;;15.93;;
12467;SDS011;57850;52.922;6.256;2024-01-11T12:36:51;31.03;;;16.80;;
12467;SDS011;57850;52.922;6.256;2024-01-11T12:39:19;29.17;;;15.93;;
12467;SDS011;57850;52.922;6.256;2024-01-11T12:41:47;29.10;;;16.37;;
12467;SDS011;57850;52.922;6.256;2024-01-11T12:44:15;30.75;;;17.27;;
12467;SDS011;57850;52.922;6.256;2024-01-11T12:46:44;33.40;;;17.63;;
12467;SDS011;57850;52.922;6.256;2024-01-11T12:49:11;36.60;;;16.67;;
12467;SDS011;57850;52.922;6.256;2024-01-11T12:51:37;32.87;;;18.17;;
12467;SDS011;57850;52.922;6.256;2024-01-11T12:54:06;30.83;;;17.33;;
12467;SDS011;57850;52.922;6.256;2024-01-11T12:56:40;33.63;;;18.63;;
12467;SDS011;57850;52.922;6.256;2024-01-11T12:59:08;41.07;;;18.13;;
12467;SDS011;57850;52.922;6.256;2024-01-11T13:01:36;37.20;;;18.97;;
12467;SDS011;57850;52.922;6.256;2024-01-11T13:04:03;37.37;;;18.67;;
12467;SDS011;57850;52.922;6.256;2024-01-11T13:06:30;32.08;;;18.02;;
12467;SDS011;57850;52.922;6.256;2024-01-11T13:08:57;33.47;;;17.80;;
12467;SDS011;57850;52.922;6.256;2024-01-11T13:11:25;33.90;;;18.23;;
12467;SDS011;57850;52.922;6.256;2024-01-11T13:13:52;32.40;;;17.17;;
12467;SDS011;57850;52.922;6.256;2024-01-11T13:16:19;29.80;;;17.13;;
12467;SDS011;57850;52.922;6.256;2024-01-11T13:18:47;34.37;;;18.53;;
12467;SDS011;57850;52.922;6.256;2024-01-11T13:21:13;32.33;;;17.90;;
12467;SDS011;57850;52.922;6.256;2024-01-11T13:23:40;34.57;;;18.83;;
12467;SDS011;57850;52.922;6.256;2024-01-11T13:26:07;34.80;;;17.80;;
12467;SDS011;57850;52.922;6.256;2024-01-11T13:28:35;32.95;;;17.17;;
12467;SDS011;57850;52.922;6.256;2024-01-11T13:31:02;31.60;;;17.70;;
12467;SDS011;57850;52.922;6.256;2024-01-11T13:33:29;33.63;;;17.37;;
12467;SDS011;57850;52.922;6.256;2024-01-11T13:35:55;35.73;;;19.50;;
12467;SDS011;57850;52.922;6.256;2024-01-11T13:38:22;35.03;;;17.90;;
12467;SDS011;57850;52.922;6.256;2024-01-11T13:40:48;37.90;;;20.07;;
12467;SDS011;57850;52.922;6.256;2024-01-11T13:43:15;35.17;;;18.50;;
12467;SDS011;57850;52.922;6.256;2024-01-11T13:45:43;36.50;;;18.42;;
12467;SDS011;57850;52.922;6.256;2024-01-11T13:48:10;36.37;;;18.27;;
12467;SDS011;57850;52.922;6.256;2024-01-11T13:50:37;35.63;;;17.97;;
12467;SDS011;57850;52.922;6.256;2024-01-11T13:53:03;32.00;;;16.17;;
12467;SDS011;57850;52.922;6.256;2024-01-11T13:55:31;33.83;;;17.03;;
12467;SDS011;57850;52.922;6.256;2024-01-11T13:58:03;28.67;;;15.90;;
12467;SDS011;57850;52.922;6.256;2024-01-11T14:00:30;28.03;;;15.40;;
12467;SDS011;57850;52.922;6.256;2024-01-11T14:02:58;26.67;;;15.40;;
12467;SDS011;57850;52.922;6.256;2024-01-11T14:05:25;30.57;;;15.40;;
12467;SDS011;57850;52.922;6.256;2024-01-11T14:07:51;28.90;;;15.23;;
12467;SDS011;57850;52.922;6.256;2024-01-11T14:10:23;27.17;;;15.07;;
12467;SDS011;57850;52.922;6.256;2024-01-11T14:12:50;25.53;;;14.47;;
12467;SDS011;57850;52.922;6.256;2024-01-11T14:15:17;26.17;;;14.57;;
12467;SDS011;57850;52.922;6.256;2024-01-11T14:17:43;28.70;;;15.87;;
12467;SDS011;57850;52.922;6.256;2024-01-11T14:20:11;26.00;;;14.93;;
12467;SDS011;57850;52.922;6.256;2024-01-11T14:22:39;27.67;;;15.53;;
12467;SDS011;57850;52.922;6.256;2024-01-11T14:25:07;33.33;;;15.02;;